AEE823 OJAI-HLLB
Flight info
| Callsign | AEE823 |
|---|---|
| Flight time | 2h 51m |
| Altitude | 36000 |
| Route | QTR01 M319 ULINA M690 NOVPA N697 MENLI L677 CVO L617 NABSI M855 LOSUL A411 MKILY MKILY1D |
| Aircraft | B737/M-SDE2E3FGHIRWXY/LB1 |
Departure
| Time | 2026-04-25 11:33 |
|---|---|
| Airport | Queen Alia International Airport (OJAI) |
Arrival
| Time | 2026-04-25 14:24 |
|---|---|
| Airport | Benina International Airport (HLLB) |
| Time | Latitude | Longitude | Altitude | Speed | Heading |
|---|---|---|---|---|---|
| 2026-04-25 11:21 | 31.71943 | 35.98763 | 2370 ft | 0 kts | 194° |
| 2026-04-25 11:28 | 31.71931 | 35.98757 | 2370 ft | 2 kts | 209° |
| 2026-04-25 11:28 | 31.71917 | 35.98733 | 2371 ft | 7 kts | 252° |
| 2026-04-25 11:28 | 31.71930 | 35.98676 | 2370 ft | 7 kts | 302° |
| 2026-04-25 11:28 | 31.71954 | 35.98625 | 2370 ft | 7 kts | 287° |
| 2026-04-25 11:29 | 31.71969 | 35.98569 | 2371 ft | 7 kts | 298° |
| 2026-04-25 11:29 | 31.72002 | 35.98515 | 2372 ft | 8 kts | 298° |
| 2026-04-25 11:29 | 31.72005 | 35.98447 | 2371 ft | 9 kts | 254° |
| 2026-04-25 11:29 | 31.71978 | 35.98367 | 2371 ft | 12 kts | 248° |
| 2026-04-25 11:30 | 31.71928 | 35.98278 | 2370 ft | 14 kts | 238° |
| 2026-04-25 11:30 | 31.71849 | 35.98235 | 2369 ft | 16 kts | 169° |
| 2026-04-25 11:30 | 31.71745 | 35.98204 | 2368 ft | 16 kts | 242° |
| 2026-04-25 11:30 | 31.71722 | 35.98076 | 2367 ft | 16 kts | 252° |
| 2026-04-25 11:31 | 31.71636 | 35.98027 | 2367 ft | 14 kts | 184° |
| 2026-04-25 11:31 | 31.71541 | 35.98047 | 2366 ft | 13 kts | 171° |
| 2026-04-25 11:31 | 31.71463 | 35.98084 | 2366 ft | 13 kts | 115° |
| 2026-04-25 11:31 | 31.71458 | 35.98180 | 2366 ft | 10 kts | 77° |
| 2026-04-25 11:32 | 31.71466 | 35.98233 | 2366 ft | 5 kts | 81° |
| 2026-04-25 11:32 | 31.71495 | 35.98436 | 2367 ft | 58 kts | 80° |
| 2026-04-25 11:32 | 31.71605 | 35.99195 | 2368 ft | 129 kts | 81° |
| 2026-04-25 11:32 | 31.71788 | 36.00460 | 2466 ft | 178 kts | 82° |
| 2026-04-25 11:33 | 31.71995 | 36.01941 | 3169 ft | 183 kts | 82° |
| 2026-04-25 11:33 | 31.72217 | 36.03490 | 3769 ft | 208 kts | 80° |
| 2026-04-25 11:33 | 31.72472 | 36.05288 | 4039 ft | 237 kts | 80° |
| 2026-04-25 11:33 | 31.72717 | 36.07249 | 4647 ft | 248 kts | 89° |
| 2026-04-25 11:34 | 31.72299 | 36.09185 | 5435 ft | 247 kts | 123° |
| 2026-04-25 11:34 | 31.71060 | 36.10562 | 6273 ft | 248 kts | 155° |
| 2026-04-25 11:34 | 31.69442 | 36.11187 | 7185 ft | 243 kts | 169° |
| 2026-04-25 11:34 | 31.67778 | 36.11560 | 8039 ft | 244 kts | 171° |
| 2026-04-25 11:35 | 31.66068 | 36.11899 | 8510 ft | 264 kts | 172° |
| 2026-04-25 11:35 | 31.64200 | 36.12272 | 8375 ft | 280 kts | 172° |
| 2026-04-25 11:35 | 31.62263 | 36.12671 | 8301 ft | 283 kts | 171° |
| 2026-04-25 11:35 | 31.60336 | 36.13078 | 8267 ft | 282 kts | 171° |
| 2026-04-25 11:36 | 31.58407 | 36.13493 | 8198 ft | 280 kts | 171° |
| 2026-04-25 11:36 | 31.56484 | 36.13910 | 8211 ft | 277 kts | 171° |
| 2026-04-25 11:36 | 31.54597 | 36.14320 | 8203 ft | 277 kts | 171° |
| 2026-04-25 11:36 | 31.52689 | 36.14736 | 8211 ft | 281 kts | 171° |
| 2026-04-25 11:37 | 31.50761 | 36.15157 | 8199 ft | 287 kts | 171° |
| 2026-04-25 11:37 | 31.48792 | 36.15459 | 8187 ft | 285 kts | 179° |
| 2026-04-25 11:37 | 31.46832 | 36.15347 | 8185 ft | 280 kts | 197° |
| 2026-04-25 11:37 | 31.45045 | 36.14467 | 8205 ft | 276 kts | 206° |
| 2026-04-25 11:38 | 31.43328 | 36.13501 | 8212 ft | 278 kts | 206° |
| 2026-04-25 11:38 | 31.41580 | 36.12508 | 8203 ft | 279 kts | 206° |
| 2026-04-25 11:38 | 31.39829 | 36.11518 | 8199 ft | 280 kts | 206° |
| 2026-04-25 11:38 | 31.38065 | 36.10529 | 8198 ft | 282 kts | 206° |
| 2026-04-25 11:39 | 31.36303 | 36.09545 | 8208 ft | 281 kts | 206° |
| 2026-04-25 11:39 | 31.34540 | 36.08567 | 8194 ft | 282 kts | 206° |
| 2026-04-25 11:39 | 31.32776 | 36.07590 | 8306 ft | 276 kts | 206° |
| 2026-04-25 11:39 | 31.31010 | 36.06615 | 8666 ft | 290 kts | 206° |
| 2026-04-25 11:40 | 31.29116 | 36.05572 | 9054 ft | 311 kts | 206° |
| 2026-04-25 11:40 | 31.27141 | 36.04484 | 9375 ft | 316 kts | 206° |
| 2026-04-25 11:40 | 31.25146 | 36.03388 | 9461 ft | 319 kts | 205° |
| 2026-04-25 11:40 | 31.23181 | 36.02309 | 9590 ft | 304 kts | 206° |
| 2026-04-25 11:41 | 31.21295 | 36.01275 | 9911 ft | 303 kts | 206° |
| 2026-04-25 11:41 | 31.19316 | 36.00189 | 10253 ft | 319 kts | 205° |
| 2026-04-25 11:41 | 31.17307 | 35.99088 | 10558 ft | 322 kts | 205° |
| 2026-04-25 11:41 | 31.15280 | 35.97979 | 10865 ft | 320 kts | 205° |
| 2026-04-25 11:42 | 31.13251 | 35.96869 | 11177 ft | 320 kts | 206° |
| 2026-04-25 11:42 | 31.11230 | 35.95763 | 11558 ft | 324 kts | 206° |
| 2026-04-25 11:42 | 31.09153 | 35.94629 | 12024 ft | 337 kts | 205° |
| 2026-04-25 11:42 | 31.07002 | 35.93452 | 12482 ft | 347 kts | 205° |
| 2026-04-25 11:43 | 31.04805 | 35.92252 | 13095 ft | 352 kts | 205° |
| 2026-04-25 11:43 | 31.02580 | 35.91037 | 13771 ft | 355 kts | 205° |
| 2026-04-25 11:43 | 31.00352 | 35.89820 | 14370 ft | 357 kts | 205° |
| 2026-04-25 11:43 | 30.98089 | 35.88586 | 14984 ft | 358 kts | 205° |
| 2026-04-25 11:44 | 30.95818 | 35.87348 | 15618 ft | 358 kts | 205° |
| 2026-04-25 11:44 | 30.93581 | 35.86129 | 16284 ft | 357 kts | 205° |
| 2026-04-25 11:44 | 30.91344 | 35.84910 | 16877 ft | 359 kts | 206° |
| 2026-04-25 11:44 | 30.89062 | 35.83668 | 17334 ft | 355 kts | 206° |
| 2026-04-25 11:45 | 30.86863 | 35.82472 | 17829 ft | 351 kts | 206° |
| 2026-04-25 11:45 | 30.84654 | 35.81270 | 18074 ft | 345 kts | 206° |
| 2026-04-25 11:45 | 30.82557 | 35.80132 | 18543 ft | 325 kts | 206° |
| 2026-04-25 11:45 | 30.80503 | 35.78999 | 18985 ft | 330 kts | 207° |
| 2026-04-25 11:46 | 30.78445 | 35.77775 | 19447 ft | 335 kts | 208° |
| 2026-04-25 11:46 | 30.76346 | 35.76488 | 19918 ft | 340 kts | 208° |
| 2026-04-25 11:46 | 30.74252 | 35.75197 | 20383 ft | 345 kts | 208° |
| 2026-04-25 11:46 | 30.72117 | 35.73884 | 20855 ft | 349 kts | 208° |
| 2026-04-25 11:47 | 30.69966 | 35.72566 | 21335 ft | 353 kts | 208° |
| 2026-04-25 11:47 | 30.67767 | 35.71224 | 21828 ft | 356 kts | 208° |
| 2026-04-25 11:47 | 30.65565 | 35.69884 | 22325 ft | 359 kts | 208° |
| 2026-04-25 11:47 | 30.63367 | 35.68549 | 22825 ft | 361 kts | 208° |
| 2026-04-25 11:48 | 30.61105 | 35.67176 | 23342 ft | 364 kts | 208° |
| 2026-04-25 11:48 | 30.58864 | 35.65818 | 23798 ft | 366 kts | 208° |
| 2026-04-25 11:48 | 30.56616 | 35.64457 | 24225 ft | 367 kts | 208° |
| 2026-04-25 11:48 | 30.54351 | 35.63086 | 24666 ft | 368 kts | 209° |
| 2026-04-25 11:49 | 30.52084 | 35.61715 | 25109 ft | 369 kts | 209° |
| 2026-04-25 11:49 | 30.49801 | 35.60334 | 25560 ft | 370 kts | 209° |
| 2026-04-25 11:49 | 30.47525 | 35.58959 | 26014 ft | 370 kts | 209° |
| 2026-04-25 11:49 | 30.45233 | 35.57575 | 26480 ft | 370 kts | 209° |
| 2026-04-25 11:50 | 30.42952 | 35.56198 | 26959 ft | 369 kts | 210° |
| 2026-04-25 11:50 | 30.40683 | 35.54829 | 27437 ft | 369 kts | 210° |
| 2026-04-25 11:50 | 30.38390 | 35.53446 | 27932 ft | 368 kts | 210° |
| 2026-04-25 11:50 | 30.36126 | 35.52082 | 28422 ft | 366 kts | 210° |
| 2026-04-25 11:51 | 30.33868 | 35.50721 | 28935 ft | 365 kts | 210° |
| 2026-04-25 11:51 | 30.31632 | 35.49375 | 29450 ft | 364 kts | 210° |
| 2026-04-25 11:51 | 30.29402 | 35.48032 | 29957 ft | 362 kts | 211° |
| 2026-04-25 11:51 | 30.27159 | 35.46683 | 30410 ft | 359 kts | 211° |
| 2026-04-25 11:52 | 30.24927 | 35.45340 | 30573 ft | 366 kts | 211° |
| 2026-04-25 11:52 | 30.22656 | 35.43976 | 30799 ft | 371 kts | 210° |
| 2026-04-25 11:52 | 30.20266 | 35.42796 | 30967 ft | 379 kts | 203° |
| 2026-04-25 11:52 | 30.17740 | 35.41837 | 30966 ft | 389 kts | 202° |
| 2026-04-25 11:53 | 30.15131 | 35.40887 | 31185 ft | 393 kts | 202° |
| 2026-04-25 11:53 | 30.12508 | 35.39939 | 31369 ft | 397 kts | 202° |
| 2026-04-25 11:53 | 30.09877 | 35.38985 | 31565 ft | 400 kts | 202° |
| 2026-04-25 11:53 | 30.07234 | 35.38021 | 31767 ft | 402 kts | 202° |
| 2026-04-25 11:54 | 30.04530 | 35.37027 | 31966 ft | 405 kts | 202° |
| 2026-04-25 11:54 | 30.01839 | 35.36036 | 32159 ft | 407 kts | 202° |
| 2026-04-25 11:54 | 29.96419 | 35.34033 | 32584 ft | 411 kts | 203° |
| 2026-04-25 11:55 | 29.93698 | 35.33027 | 32810 ft | 413 kts | 203° |
| 2026-04-25 11:55 | 29.90963 | 35.32018 | 33037 ft | 414 kts | 203° |
| 2026-04-25 11:55 | 29.88216 | 35.31004 | 33285 ft | 414 kts | 204° |
| 2026-04-25 11:55 | 29.85476 | 35.29994 | 33570 ft | 413 kts | 204° |
| 2026-04-25 11:56 | 29.82755 | 35.28992 | 33855 ft | 412 kts | 204° |
| 2026-04-25 11:56 | 29.80017 | 35.27984 | 34183 ft | 410 kts | 205° |
| 2026-04-25 11:56 | 29.77311 | 35.26987 | 34383 ft | 410 kts | 205° |
| 2026-04-25 11:56 | 29.74601 | 35.25989 | 34563 ft | 411 kts | 205° |
| 2026-04-25 11:57 | 29.71871 | 35.24984 | 34749 ft | 412 kts | 205° |
| 2026-04-25 11:57 | 29.69138 | 35.23979 | 34931 ft | 413 kts | 205° |
| 2026-04-25 11:57 | 29.66394 | 35.22971 | 35166 ft | 413 kts | 206° |
| 2026-04-25 11:57 | 29.63661 | 35.21967 | 35363 ft | 414 kts | 206° |
| 2026-04-25 11:58 | 29.61015 | 35.20789 | 35550 ft | 405 kts | 215° |
| 2026-04-25 11:58 | 29.58603 | 35.19141 | 35769 ft | 398 kts | 221° |
| 2026-04-25 11:58 | 29.56425 | 35.17243 | 35872 ft | 396 kts | 227° |
| 2026-04-25 11:59 | 29.52733 | 35.12571 | 35880 ft | 399 kts | 235° |
| 2026-04-25 11:59 | 29.49139 | 35.07640 | 35881 ft | 405 kts | 235° |
| 2026-04-25 12:00 | 29.45587 | 35.02846 | 35868 ft | 378 kts | 235° |
| 2026-04-25 12:00 | 29.43909 | 35.00592 | 35861 ft | 367 kts | 235° |
| 2026-04-25 12:01 | 29.38251 | 34.94637 | 35885 ft | 378 kts | 222° |
| 2026-04-25 12:01 | 29.33898 | 34.91233 | 35875 ft | 379 kts | 222° |
| 2026-04-25 12:02 | 29.27369 | 34.86114 | 35872 ft | 380 kts | 223° |
| 2026-04-25 12:02 | 29.22996 | 34.82669 | 35871 ft | 380 kts | 223° |
| 2026-04-25 12:03 | 29.18648 | 34.79243 | 35870 ft | 380 kts | 223° |
| 2026-04-25 12:03 | 29.14304 | 34.75823 | 35868 ft | 380 kts | 223° |
| 2026-04-25 12:04 | 29.09937 | 34.72390 | 35864 ft | 380 kts | 223° |
| 2026-04-25 12:04 | 29.07993 | 34.70460 | 35854 ft | 366 kts | 237° |
| 2026-04-25 12:04 | 29.06635 | 34.68060 | 35864 ft | 358 kts | 248° |
| 2026-04-25 12:05 | 29.05388 | 34.62627 | 35870 ft | 354 kts | 265° |
| 2026-04-25 12:05 | 29.05446 | 34.59796 | 35858 ft | 356 kts | 277° |
| 2026-04-25 12:05 | 29.06052 | 34.57069 | 35893 ft | 358 kts | 282° |
| 2026-04-25 12:06 | 29.07639 | 34.51668 | 35874 ft | 357 kts | 283° |
| 2026-04-25 12:06 | 29.09272 | 34.46298 | 35885 ft | 357 kts | 283° |
| 2026-04-25 12:07 | 29.10868 | 34.40940 | 35893 ft | 358 kts | 283° |
| 2026-04-25 12:07 | 29.12462 | 34.35510 | 35896 ft | 360 kts | 283° |
| 2026-04-25 12:08 | 29.14051 | 34.30066 | 35890 ft | 362 kts | 283° |
| 2026-04-25 12:08 | 29.15640 | 34.24613 | 35903 ft | 364 kts | 283° |
| 2026-04-25 12:09 | 29.17245 | 34.19085 | 35881 ft | 368 kts | 283° |
| 2026-04-25 12:09 | 29.18857 | 34.13534 | 35900 ft | 368 kts | 283° |
| 2026-04-25 12:10 | 29.20469 | 34.07972 | 35904 ft | 368 kts | 283° |
| 2026-04-25 12:10 | 29.22075 | 34.02419 | 35903 ft | 368 kts | 283° |
| 2026-04-25 12:11 | 29.23678 | 33.96870 | 35906 ft | 367 kts | 283° |
| 2026-04-25 12:11 | 29.25276 | 33.91327 | 35911 ft | 366 kts | 283° |
| 2026-04-25 12:12 | 29.26607 | 33.86709 | 35909 ft | 365 kts | 283° |
| 2026-04-25 12:12 | 29.28452 | 33.80294 | 35904 ft | 365 kts | 283° |
| 2026-04-25 12:13 | 29.30041 | 33.74759 | 35908 ft | 364 kts | 283° |
| 2026-04-25 12:13 | 29.31612 | 33.69276 | 35906 ft | 364 kts | 283° |
| 2026-04-25 12:14 | 29.33186 | 33.63773 | 35902 ft | 363 kts | 283° |
| 2026-04-25 12:14 | 29.34755 | 33.58278 | 35907 ft | 362 kts | 283° |
| 2026-04-25 12:15 | 29.36322 | 33.52780 | 35907 ft | 362 kts | 283° |
| 2026-04-25 12:15 | 29.37872 | 33.47333 | 35900 ft | 361 kts | 283° |
| 2026-04-25 12:16 | 29.39436 | 33.41826 | 35901 ft | 361 kts | 283° |
| 2026-04-25 12:16 | 29.40987 | 33.36355 | 35891 ft | 362 kts | 283° |
| 2026-04-25 12:17 | 29.42542 | 33.30859 | 35901 ft | 362 kts | 283° |
| 2026-04-25 12:17 | 29.44091 | 33.25376 | 35894 ft | 363 kts | 283° |
| 2026-04-25 12:18 | 29.45382 | 33.20799 | 35895 ft | 363 kts | 283° |
| 2026-04-25 12:18 | 29.47194 | 33.14364 | 35891 ft | 364 kts | 283° |
| 2026-04-25 12:19 | 29.49524 | 33.06069 | 35892 ft | 366 kts | 283° |
| 2026-04-25 12:20 | 29.50824 | 33.01431 | 35893 ft | 367 kts | 283° |
| 2026-04-25 12:20 | 29.52389 | 32.95841 | 35893 ft | 367 kts | 283° |
| 2026-04-25 12:21 | 29.53949 | 32.90258 | 35894 ft | 368 kts | 283° |
| 2026-04-25 12:21 | 29.55508 | 32.84667 | 35891 ft | 368 kts | 283° |
| 2026-04-25 12:22 | 29.57072 | 32.79048 | 35887 ft | 369 kts | 282° |
| 2026-04-25 12:22 | 29.58632 | 32.73437 | 35890 ft | 369 kts | 282° |
| 2026-04-25 12:23 | 29.60176 | 32.67815 | 35887 ft | 368 kts | 281° |
| 2026-04-25 12:23 | 29.61494 | 32.62167 | 35888 ft | 367 kts | 280° |
| 2026-04-25 12:24 | 29.62755 | 32.56474 | 35888 ft | 367 kts | 280° |
| 2026-04-25 12:24 | 29.64020 | 32.50803 | 35890 ft | 367 kts | 280° |
| 2026-04-25 12:25 | 29.65293 | 32.45140 | 35890 ft | 366 kts | 280° |
| 2026-04-25 12:25 | 29.66564 | 32.39490 | 35892 ft | 366 kts | 280° |
| 2026-04-25 12:26 | 29.67837 | 32.33825 | 35896 ft | 366 kts | 280° |
| 2026-04-25 12:26 | 29.69104 | 32.28179 | 35897 ft | 365 kts | 280° |
| 2026-04-25 12:27 | 29.70376 | 32.22493 | 35897 ft | 365 kts | 280° |
| 2026-04-25 12:27 | 29.71638 | 32.16844 | 35906 ft | 365 kts | 280° |
| 2026-04-25 12:28 | 29.72899 | 32.11179 | 35901 ft | 365 kts | 280° |
| 2026-04-25 12:28 | 29.74154 | 32.05537 | 35904 ft | 365 kts | 280° |
| 2026-04-25 12:29 | 29.75408 | 31.99882 | 35903 ft | 366 kts | 280° |
| 2026-04-25 12:29 | 29.76665 | 31.94208 | 35900 ft | 366 kts | 280° |
| 2026-04-25 12:30 | 29.78061 | 31.88566 | 35897 ft | 369 kts | 287° |
| 2026-04-25 12:30 | 29.80503 | 31.83292 | 35896 ft | 380 kts | 298° |
| 2026-04-25 12:31 | 29.83673 | 31.78402 | 35900 ft | 381 kts | 299° |
| 2026-04-25 12:31 | 29.86844 | 31.73538 | 35896 ft | 382 kts | 299° |
| 2026-04-25 12:32 | 29.90017 | 31.68613 | 35894 ft | 382 kts | 298° |
| 2026-04-25 12:32 | 29.93179 | 31.63697 | 35885 ft | 382 kts | 299° |
| 2026-04-25 12:33 | 29.96346 | 31.58790 | 35876 ft | 383 kts | 299° |
| 2026-04-25 12:33 | 29.99528 | 31.53853 | 35865 ft | 383 kts | 299° |
| 2026-04-25 12:34 | 30.02703 | 31.48919 | 35862 ft | 383 kts | 299° |
| 2026-04-25 12:34 | 30.05869 | 31.43993 | 35862 ft | 384 kts | 299° |
| 2026-04-25 12:35 | 30.09098 | 31.39043 | 35855 ft | 388 kts | 302° |
| 2026-04-25 12:35 | 30.13001 | 31.34636 | 35859 ft | 395 kts | 309° |
| 2026-04-25 12:36 | 30.17071 | 31.30326 | 35863 ft | 396 kts | 309° |
| 2026-04-25 12:36 | 30.21095 | 31.26041 | 35856 ft | 396 kts | 308° |
| 2026-04-25 12:37 | 30.25152 | 31.21694 | 35854 ft | 396 kts | 308° |
| 2026-04-25 12:37 | 30.29170 | 31.17374 | 35846 ft | 396 kts | 308° |
| 2026-04-25 12:38 | 30.33206 | 31.13027 | 35839 ft | 396 kts | 308° |
| 2026-04-25 12:38 | 30.37242 | 31.08674 | 35834 ft | 397 kts | 308° |
| 2026-04-25 12:39 | 30.41269 | 31.04327 | 35830 ft | 397 kts | 308° |
| 2026-04-25 12:39 | 30.45308 | 30.99962 | 35827 ft | 398 kts | 308° |
| 2026-04-25 12:40 | 30.49360 | 30.95578 | 35824 ft | 398 kts | 308° |
| 2026-04-25 12:40 | 30.53416 | 30.91183 | 35821 ft | 399 kts | 308° |
| 2026-04-25 12:41 | 30.57453 | 30.86805 | 35818 ft | 399 kts | 308° |
| 2026-04-25 12:41 | 30.61518 | 30.82390 | 35820 ft | 400 kts | 308° |
| 2026-04-25 12:42 | 30.65589 | 30.77964 | 35821 ft | 400 kts | 308° |
| 2026-04-25 12:42 | 30.69632 | 30.73562 | 35816 ft | 401 kts | 308° |
| 2026-04-25 12:43 | 30.73726 | 30.69100 | 35820 ft | 401 kts | 308° |
| 2026-04-25 12:43 | 30.79825 | 30.62442 | 35821 ft | 402 kts | 308° |
| 2026-04-25 12:44 | 30.83881 | 30.58007 | 35816 ft | 402 kts | 308° |
| 2026-04-25 12:45 | 30.89985 | 30.51325 | 35813 ft | 402 kts | 308° |
| 2026-04-25 12:45 | 30.96093 | 30.44624 | 35823 ft | 402 kts | 308° |
| 2026-04-25 12:46 | 31.00150 | 30.40166 | 35816 ft | 402 kts | 308° |
| 2026-04-25 12:46 | 31.04218 | 30.35691 | 35821 ft | 402 kts | 308° |
| 2026-04-25 12:47 | 31.07983 | 30.30991 | 35823 ft | 391 kts | 297° |
| 2026-04-25 12:47 | 31.10542 | 30.25476 | 35809 ft | 380 kts | 284° |
| 2026-04-25 12:48 | 31.12142 | 30.19647 | 35812 ft | 378 kts | 282° |
| 2026-04-25 12:48 | 31.13716 | 30.13776 | 35811 ft | 379 kts | 283° |
| 2026-04-25 12:49 | 31.15306 | 30.07920 | 35806 ft | 379 kts | 283° |
| 2026-04-25 12:49 | 31.16904 | 30.02066 | 35808 ft | 379 kts | 283° |
| 2026-04-25 12:50 | 31.18604 | 29.96250 | 35795 ft | 382 kts | 289° |
| 2026-04-25 12:50 | 31.21351 | 29.90893 | 35814 ft | 391 kts | 299° |
| 2026-04-25 12:51 | 31.24586 | 29.85773 | 35810 ft | 392 kts | 299° |
| 2026-04-25 12:51 | 31.27815 | 29.80655 | 35811 ft | 392 kts | 299° |
| 2026-04-25 12:52 | 31.31025 | 29.75525 | 35821 ft | 392 kts | 299° |
| 2026-04-25 12:52 | 31.34244 | 29.70358 | 35827 ft | 392 kts | 299° |
| 2026-04-25 12:53 | 31.37454 | 29.65194 | 35839 ft | 392 kts | 299° |
| 2026-04-25 12:53 | 31.40651 | 29.60044 | 35851 ft | 392 kts | 299° |
| 2026-04-25 12:54 | 31.43837 | 29.54904 | 35854 ft | 392 kts | 299° |
| 2026-04-25 12:54 | 31.47049 | 29.49717 | 35858 ft | 393 kts | 299° |
| 2026-04-25 12:55 | 31.49724 | 29.45391 | 35862 ft | 393 kts | 299° |
| 2026-04-25 12:55 | 31.53446 | 29.39364 | 35861 ft | 393 kts | 299° |
| 2026-04-25 12:56 | 31.56649 | 29.34170 | 35865 ft | 394 kts | 299° |
| 2026-04-25 12:56 | 31.59866 | 29.28940 | 35868 ft | 394 kts | 299° |
| 2026-04-25 12:57 | 31.63056 | 29.23711 | 35873 ft | 394 kts | 299° |
| 2026-04-25 12:57 | 31.66236 | 29.18489 | 35880 ft | 395 kts | 299° |
| 2026-04-25 12:58 | 31.69438 | 29.13228 | 35878 ft | 395 kts | 299° |
| 2026-04-25 12:58 | 31.71880 | 29.07639 | 35905 ft | 380 kts | 278° |
| 2026-04-25 12:59 | 31.71981 | 29.01562 | 35868 ft | 375 kts | 256° |
| 2026-04-25 12:59 | 31.70678 | 28.95613 | 35891 ft | 375 kts | 255° |
| 2026-04-25 13:00 | 31.69802 | 28.91684 | 35880 ft | 376 kts | 255° |
| 2026-04-25 13:00 | 31.68072 | 28.83768 | 35877 ft | 376 kts | 256° |
| 2026-04-25 13:01 | 31.66784 | 28.77807 | 35880 ft | 377 kts | 256° |
| 2026-04-25 13:01 | 31.65497 | 28.71849 | 35878 ft | 377 kts | 256° |
| 2026-04-25 13:02 | 31.64202 | 28.65873 | 35876 ft | 377 kts | 256° |
| 2026-04-25 13:02 | 31.62906 | 28.59900 | 35877 ft | 377 kts | 256° |
| 2026-04-25 13:03 | 31.61613 | 28.53962 | 35879 ft | 376 kts | 256° |
| 2026-04-25 13:03 | 31.60310 | 28.48026 | 35876 ft | 376 kts | 255° |
| 2026-04-25 13:04 | 31.59005 | 28.42102 | 35873 ft | 375 kts | 255° |
| 2026-04-25 13:04 | 31.57700 | 28.36186 | 35877 ft | 374 kts | 255° |
| 2026-04-25 13:05 | 31.56395 | 28.30281 | 35884 ft | 374 kts | 255° |
| 2026-04-25 13:05 | 31.55090 | 28.24391 | 35880 ft | 373 kts | 255° |
| 2026-04-25 13:06 | 31.53784 | 28.18508 | 35882 ft | 373 kts | 255° |
| 2026-04-25 13:06 | 31.52480 | 28.12647 | 35884 ft | 373 kts | 255° |
| 2026-04-25 13:07 | 31.51170 | 28.06771 | 35887 ft | 373 kts | 255° |
| 2026-04-25 13:07 | 31.49857 | 28.00899 | 35884 ft | 373 kts | 255° |
| 2026-04-25 13:08 | 31.48542 | 27.95031 | 35888 ft | 373 kts | 255° |
| 2026-04-25 13:08 | 31.47220 | 27.89136 | 35888 ft | 374 kts | 255° |
| 2026-04-25 13:09 | 31.45892 | 27.83228 | 35890 ft | 374 kts | 255° |
| 2026-04-25 13:09 | 31.44566 | 27.77342 | 35894 ft | 375 kts | 255° |
| 2026-04-25 13:10 | 31.43240 | 27.71470 | 35894 ft | 375 kts | 255° |
| 2026-04-25 13:10 | 31.41895 | 27.65526 | 35897 ft | 376 kts | 255° |
| 2026-04-25 13:11 | 31.40556 | 27.59619 | 35902 ft | 377 kts | 255° |
| 2026-04-25 13:11 | 31.39211 | 27.53702 | 35903 ft | 377 kts | 255° |
| 2026-04-25 13:12 | 31.38086 | 27.48766 | 35904 ft | 377 kts | 255° |
| 2026-04-25 13:12 | 31.36957 | 27.43817 | 35908 ft | 377 kts | 255° |
| 2026-04-25 13:13 | 31.35152 | 27.35923 | 35911 ft | 377 kts | 255° |
| 2026-04-25 13:13 | 31.33795 | 27.30005 | 35912 ft | 377 kts | 255° |
| 2026-04-25 13:14 | 31.32833 | 27.25028 | 35903 ft | 377 kts | 264° |
| 2026-04-25 13:14 | 31.32826 | 27.18884 | 35909 ft | 379 kts | 274° |
| 2026-04-25 13:15 | 31.33937 | 27.12845 | 35912 ft | 381 kts | 280° |
| 2026-04-25 13:15 | 31.35259 | 27.06855 | 35912 ft | 381 kts | 281° |
| 2026-04-25 13:16 | 31.36573 | 27.00849 | 35912 ft | 380 kts | 280° |
| 2026-04-25 13:16 | 31.37862 | 26.94868 | 35908 ft | 380 kts | 280° |
| 2026-04-25 13:17 | 31.39146 | 26.88859 | 35904 ft | 380 kts | 280° |
| 2026-04-25 13:17 | 31.40415 | 26.82892 | 35906 ft | 380 kts | 280° |
| 2026-04-25 13:18 | 31.41688 | 26.76891 | 35907 ft | 380 kts | 280° |
| 2026-04-25 13:18 | 31.42963 | 26.70867 | 35903 ft | 380 kts | 280° |
| 2026-04-25 13:19 | 31.44223 | 26.64898 | 35903 ft | 380 kts | 280° |
| 2026-04-25 13:19 | 31.45276 | 26.59896 | 35908 ft | 380 kts | 280° |
| 2026-04-25 13:20 | 31.46747 | 26.52896 | 35915 ft | 380 kts | 280° |
| 2026-04-25 13:20 | 31.48010 | 26.46868 | 35913 ft | 381 kts | 280° |
| 2026-04-25 13:21 | 31.49267 | 26.40855 | 35915 ft | 381 kts | 280° |
| 2026-04-25 13:21 | 31.50523 | 26.34832 | 35905 ft | 381 kts | 280° |
| 2026-04-25 13:22 | 31.51784 | 26.28768 | 35910 ft | 382 kts | 280° |
| 2026-04-25 13:23 | 31.53662 | 26.19711 | 35909 ft | 382 kts | 280° |
| 2026-04-25 13:23 | 31.54911 | 26.13666 | 35914 ft | 383 kts | 280° |
| 2026-04-25 13:24 | 31.56164 | 26.07587 | 35914 ft | 383 kts | 280° |
| 2026-04-25 13:24 | 31.57415 | 26.01501 | 35917 ft | 383 kts | 280° |
| 2026-04-25 13:25 | 31.58316 | 25.95387 | 35921 ft | 382 kts | 276° |
| 2026-04-25 13:25 | 31.59062 | 25.89218 | 35911 ft | 383 kts | 276° |
| 2026-04-25 13:26 | 31.59811 | 25.83041 | 35914 ft | 383 kts | 276° |
| 2026-04-25 13:26 | 31.60573 | 25.76851 | 35913 ft | 384 kts | 276° |
| 2026-04-25 13:27 | 31.61337 | 25.70678 | 35912 ft | 385 kts | 276° |
| 2026-04-25 13:27 | 31.62102 | 25.64477 | 35919 ft | 385 kts | 276° |
| 2026-04-25 13:28 | 31.62871 | 25.58219 | 35917 ft | 386 kts | 276° |
| 2026-04-25 13:28 | 31.63633 | 25.52000 | 35914 ft | 386 kts | 276° |
| 2026-04-25 13:29 | 31.64390 | 25.45792 | 35916 ft | 386 kts | 276° |
| 2026-04-25 13:29 | 31.65151 | 25.39520 | 35912 ft | 387 kts | 276° |
| 2026-04-25 13:30 | 31.66281 | 25.30166 | 35921 ft | 387 kts | 276° |
| 2026-04-25 13:31 | 31.67411 | 25.20750 | 35919 ft | 388 kts | 276° |
| 2026-04-25 13:31 | 31.68156 | 25.14519 | 35919 ft | 388 kts | 276° |
| 2026-04-25 13:32 | 31.68987 | 25.08255 | 35923 ft | 388 kts | 277° |
| 2026-04-25 13:32 | 31.69908 | 25.02024 | 35920 ft | 388 kts | 277° |
| 2026-04-25 13:33 | 31.70826 | 24.95782 | 35923 ft | 388 kts | 277° |
| 2026-04-25 13:33 | 31.71727 | 24.89558 | 35920 ft | 388 kts | 277° |
| 2026-04-25 13:34 | 31.72622 | 24.83316 | 35923 ft | 388 kts | 277° |
| 2026-04-25 13:34 | 31.73518 | 24.77037 | 35931 ft | 387 kts | 277° |
| 2026-04-25 13:35 | 31.74401 | 24.70823 | 35928 ft | 387 kts | 277° |
| 2026-04-25 13:35 | 31.75283 | 24.64592 | 35928 ft | 386 kts | 277° |
| 2026-04-25 13:36 | 31.76161 | 24.58373 | 35930 ft | 386 kts | 277° |
| 2026-04-25 13:36 | 31.77031 | 24.52184 | 35937 ft | 385 kts | 277° |
| 2026-04-25 13:37 | 31.77903 | 24.45957 | 35936 ft | 385 kts | 277° |
| 2026-04-25 13:37 | 31.78766 | 24.39774 | 35936 ft | 384 kts | 277° |
| 2026-04-25 13:38 | 31.79631 | 24.33556 | 35936 ft | 384 kts | 277° |
| 2026-04-25 13:38 | 31.80487 | 24.27374 | 35938 ft | 384 kts | 277° |
| 2026-04-25 13:39 | 31.81340 | 24.21195 | 35940 ft | 384 kts | 277° |
| 2026-04-25 13:39 | 31.82190 | 24.15014 | 35941 ft | 383 kts | 277° |
| 2026-04-25 13:40 | 31.83038 | 24.08823 | 35943 ft | 384 kts | 277° |
| 2026-04-25 13:40 | 31.83884 | 24.02628 | 35941 ft | 384 kts | 277° |
| 2026-04-25 13:41 | 31.84728 | 23.96423 | 35949 ft | 384 kts | 277° |
| 2026-04-25 13:41 | 31.85522 | 23.90213 | 35947 ft | 384 kts | 275° |
| 2026-04-25 13:42 | 31.86079 | 23.83980 | 35953 ft | 384 kts | 274° |
| 2026-04-25 13:42 | 31.86592 | 23.77724 | 35955 ft | 384 kts | 275° |
| 2026-04-25 13:43 | 31.87117 | 23.71461 | 35518 ft | 388 kts | 275° |
| 2026-04-25 13:43 | 31.87383 | 23.68332 | 35137 ft | 383 kts | 275° |
| 2026-04-25 13:43 | 31.87652 | 23.65197 | 34734 ft | 379 kts | 275° |
| 2026-04-25 13:43 | 31.87913 | 23.62156 | 34346 ft | 374 kts | 275° |
| 2026-04-25 13:44 | 31.88172 | 23.59126 | 33959 ft | 370 kts | 275° |
| 2026-04-25 13:44 | 31.88427 | 23.56144 | 33511 ft | 366 kts | 275° |
| 2026-04-25 13:44 | 31.88681 | 23.53164 | 33057 ft | 362 kts | 275° |
| 2026-04-25 13:44 | 31.88929 | 23.50244 | 32610 ft | 358 kts | 275° |
| 2026-04-25 13:45 | 31.89172 | 23.47370 | 32178 ft | 355 kts | 275° |
| 2026-04-25 13:45 | 31.89417 | 23.44469 | 31752 ft | 352 kts | 275° |
| 2026-04-25 13:45 | 31.89657 | 23.41617 | 31316 ft | 349 kts | 275° |
| 2026-04-25 13:45 | 31.89895 | 23.38778 | 30816 ft | 349 kts | 275° |
| 2026-04-25 13:46 | 31.90134 | 23.35925 | 30341 ft | 349 kts | 275° |
| 2026-04-25 13:46 | 31.90370 | 23.33106 | 29847 ft | 349 kts | 275° |
| 2026-04-25 13:46 | 31.90606 | 23.30267 | 29294 ft | 350 kts | 275° |
| 2026-04-25 13:46 | 31.90844 | 23.27398 | 28753 ft | 353 kts | 275° |
| 2026-04-25 13:47 | 31.91082 | 23.24529 | 28175 ft | 356 kts | 275° |
| 2026-04-25 13:47 | 31.91324 | 23.21607 | 27594 ft | 357 kts | 275° |
| 2026-04-25 13:47 | 31.91565 | 23.18675 | 27013 ft | 357 kts | 275° |
| 2026-04-25 13:47 | 31.91801 | 23.15806 | 26463 ft | 355 kts | 275° |
| 2026-04-25 13:48 | 31.92039 | 23.12900 | 25918 ft | 353 kts | 275° |
| 2026-04-25 13:48 | 31.92274 | 23.10022 | 25379 ft | 352 kts | 275° |
| 2026-04-25 13:48 | 31.92506 | 23.07180 | 24861 ft | 350 kts | 275° |
| 2026-04-25 13:48 | 31.92736 | 23.04349 | 24334 ft | 348 kts | 275° |
| 2026-04-25 13:49 | 31.92964 | 23.01531 | 23834 ft | 347 kts | 275° |
| 2026-04-25 13:49 | 31.93194 | 22.98684 | 23282 ft | 345 kts | 275° |
| 2026-04-25 13:49 | 31.93421 | 22.95871 | 22688 ft | 344 kts | 275° |
| 2026-04-25 13:49 | 31.93644 | 22.93092 | 22111 ft | 342 kts | 275° |
| 2026-04-25 13:50 | 31.93866 | 22.90323 | 21541 ft | 341 kts | 275° |
| 2026-04-25 13:50 | 31.94088 | 22.87548 | 20986 ft | 339 kts | 275° |
| 2026-04-25 13:50 | 31.94309 | 22.84767 | 20428 ft | 337 kts | 275° |
| 2026-04-25 13:50 | 31.94527 | 22.82028 | 19890 ft | 336 kts | 276° |
| 2026-04-25 13:51 | 31.94743 | 22.79301 | 19356 ft | 334 kts | 276° |
| 2026-04-25 13:51 | 31.94957 | 22.76600 | 18837 ft | 332 kts | 276° |
| 2026-04-25 13:51 | 31.95168 | 22.73920 | 18325 ft | 330 kts | 276° |
| 2026-04-25 13:51 | 31.95379 | 22.71237 | 17753 ft | 328 kts | 276° |
| 2026-04-25 13:52 | 31.95587 | 22.68582 | 17181 ft | 326 kts | 276° |
| 2026-04-25 13:52 | 31.95794 | 22.65932 | 16609 ft | 324 kts | 276° |
| 2026-04-25 13:52 | 31.96001 | 22.63271 | 16052 ft | 322 kts | 276° |
| 2026-04-25 13:52 | 31.96203 | 22.60672 | 15508 ft | 320 kts | 276° |
| 2026-04-25 13:53 | 31.96405 | 22.58076 | 14972 ft | 319 kts | 276° |
| 2026-04-25 13:53 | 31.96608 | 22.55453 | 14435 ft | 317 kts | 276° |
| 2026-04-25 13:53 | 31.96806 | 22.52883 | 13915 ft | 316 kts | 276° |
| 2026-04-25 13:53 | 31.97004 | 22.50312 | 13353 ft | 314 kts | 276° |
| 2026-04-25 13:54 | 31.97199 | 22.47761 | 12784 ft | 313 kts | 276° |
| 2026-04-25 13:54 | 31.97393 | 22.45226 | 12220 ft | 311 kts | 277° |
| 2026-04-25 13:54 | 31.97588 | 22.42677 | 11664 ft | 310 kts | 277° |
| 2026-04-25 13:54 | 31.97780 | 22.40160 | 11120 ft | 308 kts | 277° |
| 2026-04-25 13:55 | 31.97971 | 22.37646 | 10584 ft | 307 kts | 277° |
| 2026-04-25 13:55 | 31.98159 | 22.35168 | 10062 ft | 306 kts | 277° |
| 2026-04-25 13:55 | 31.98347 | 22.32677 | 9499 ft | 304 kts | 277° |
| 2026-04-25 13:55 | 31.98534 | 22.30212 | 8923 ft | 303 kts | 277° |
| 2026-04-25 13:56 | 31.98723 | 22.27725 | 8353 ft | 301 kts | 277° |
| 2026-04-25 13:56 | 31.98907 | 22.25295 | 7827 ft | 299 kts | 278° |
| 2026-04-25 13:56 | 31.99090 | 22.22865 | 7355 ft | 295 kts | 277° |
| 2026-04-25 13:56 | 31.99269 | 22.20477 | 6887 ft | 291 kts | 278° |
| 2026-04-25 13:57 | 31.99445 | 22.18136 | 6569 ft | 283 kts | 278° |
| 2026-04-25 13:57 | 31.99501 | 22.17388 | 6526 ft | 277 kts | 278° |
| 2026-04-25 13:57 | 31.99768 | 22.13775 | 6494 ft | 256 kts | 278° |
| 2026-04-25 13:57 | 31.99927 | 22.11675 | 6510 ft | 261 kts | 278° |
| 2026-04-25 13:58 | 32.00089 | 22.09525 | 6505 ft | 266 kts | 278° |
| 2026-04-25 13:58 | 32.00253 | 22.07339 | 6502 ft | 267 kts | 278° |
| 2026-04-25 13:58 | 32.00415 | 22.05160 | 6504 ft | 266 kts | 278° |
| 2026-04-25 13:58 | 32.00576 | 22.02991 | 6505 ft | 265 kts | 278° |
| 2026-04-25 13:59 | 32.00736 | 22.00833 | 6499 ft | 265 kts | 278° |
| 2026-04-25 13:59 | 32.00894 | 21.98690 | 6504 ft | 264 kts | 278° |
| 2026-04-25 13:59 | 32.01053 | 21.96532 | 6507 ft | 263 kts | 278° |
| 2026-04-25 13:59 | 32.01210 | 21.94389 | 6513 ft | 263 kts | 278° |
| 2026-04-25 14:00 | 32.01316 | 21.92940 | 6511 ft | 264 kts | 278° |
| 2026-04-25 14:00 | 32.01524 | 21.90088 | 6508 ft | 263 kts | 278° |
| 2026-04-25 14:00 | 32.01682 | 21.87932 | 6522 ft | 264 kts | 278° |
| 2026-04-25 14:00 | 32.01839 | 21.85776 | 6520 ft | 265 kts | 278° |
| 2026-04-25 14:01 | 32.01996 | 21.83607 | 6511 ft | 266 kts | 278° |
| 2026-04-25 14:01 | 32.02154 | 21.81422 | 6508 ft | 266 kts | 278° |
| 2026-04-25 14:01 | 32.02310 | 21.79263 | 6511 ft | 266 kts | 278° |
| 2026-04-25 14:01 | 32.02466 | 21.77095 | 6509 ft | 267 kts | 278° |
| 2026-04-25 14:02 | 32.02622 | 21.74922 | 6508 ft | 268 kts | 278° |
| 2026-04-25 14:02 | 32.02781 | 21.72717 | 6517 ft | 268 kts | 278° |
| 2026-04-25 14:02 | 32.02937 | 21.70526 | 6519 ft | 269 kts | 278° |
| 2026-04-25 14:02 | 32.02990 | 21.69792 | 6511 ft | 269 kts | 278° |
| 2026-04-25 14:03 | 32.03249 | 21.66138 | 6516 ft | 269 kts | 278° |
| 2026-04-25 14:03 | 32.03404 | 21.63949 | 6507 ft | 268 kts | 278° |
| 2026-04-25 14:03 | 32.03559 | 21.61750 | 6511 ft | 268 kts | 278° |
| 2026-04-25 14:03 | 32.03713 | 21.59572 | 6514 ft | 267 kts | 278° |
| 2026-04-25 14:04 | 32.03866 | 21.57394 | 6524 ft | 266 kts | 278° |
| 2026-04-25 14:04 | 32.04019 | 21.55223 | 6516 ft | 266 kts | 278° |
| 2026-04-25 14:04 | 32.04171 | 21.53053 | 6529 ft | 266 kts | 278° |
| 2026-04-25 14:04 | 32.04322 | 21.50890 | 6523 ft | 266 kts | 278° |
| 2026-04-25 14:05 | 32.04472 | 21.48728 | 6523 ft | 265 kts | 278° |
| 2026-04-25 14:05 | 32.04624 | 21.46542 | 6541 ft | 266 kts | 278° |
| 2026-04-25 14:05 | 32.04776 | 21.44355 | 6527 ft | 267 kts | 278° |
| 2026-04-25 14:05 | 32.04927 | 21.42180 | 6529 ft | 267 kts | 278° |
| 2026-04-25 14:06 | 32.05077 | 21.40004 | 6525 ft | 267 kts | 278° |
| 2026-04-25 14:06 | 32.05227 | 21.37834 | 6534 ft | 267 kts | 278° |
| 2026-04-25 14:06 | 32.05378 | 21.35630 | 6531 ft | 269 kts | 278° |
| 2026-04-25 14:06 | 32.05529 | 21.33439 | 6529 ft | 274 kts | 278° |
| 2026-04-25 14:07 | 32.05684 | 21.31172 | 6529 ft | 275 kts | 278° |
| 2026-04-25 14:07 | 32.05836 | 21.28925 | 6520 ft | 274 kts | 278° |
| 2026-04-25 14:07 | 32.05987 | 21.26701 | 6532 ft | 274 kts | 278° |
| 2026-04-25 14:07 | 32.06138 | 21.24471 | 6528 ft | 274 kts | 278° |
| 2026-04-25 14:08 | 32.06290 | 21.22219 | 6537 ft | 274 kts | 278° |
| 2026-04-25 14:08 | 32.06441 | 21.19981 | 6529 ft | 274 kts | 278° |
| 2026-04-25 14:08 | 32.06592 | 21.17750 | 6541 ft | 275 kts | 278° |
| 2026-04-25 14:08 | 32.06744 | 21.15482 | 6532 ft | 275 kts | 278° |
| 2026-04-25 14:09 | 32.06894 | 21.13242 | 6538 ft | 276 kts | 278° |
| 2026-04-25 14:09 | 32.07044 | 21.10999 | 6538 ft | 277 kts | 278° |
| 2026-04-25 14:09 | 32.07194 | 21.08732 | 6386 ft | 273 kts | 278° |
| 2026-04-25 14:09 | 32.07241 | 21.08007 | 6327 ft | 269 kts | 278° |
| 2026-04-25 14:10 | 32.07429 | 21.05125 | 6104 ft | 257 kts | 278° |
| 2026-04-25 14:10 | 32.07612 | 21.02357 | 5900 ft | 255 kts | 278° |
| 2026-04-25 14:10 | 32.07749 | 21.00282 | 5745 ft | 254 kts | 278° |
| 2026-04-25 14:10 | 32.07842 | 20.98890 | 5637 ft | 253 kts | 278° |
| 2026-04-25 14:11 | 32.07978 | 20.96832 | 5490 ft | 252 kts | 278° |
| 2026-04-25 14:11 | 32.08112 | 20.94777 | 5356 ft | 252 kts | 278° |
| 2026-04-25 14:11 | 32.08248 | 20.92709 | 5221 ft | 252 kts | 278° |
| 2026-04-25 14:11 | 32.08382 | 20.90644 | 5085 ft | 253 kts | 278° |
| 2026-04-25 14:12 | 32.08516 | 20.88578 | 4951 ft | 253 kts | 278° |
| 2026-04-25 14:12 | 32.08651 | 20.86513 | 4808 ft | 254 kts | 278° |
| 2026-04-25 14:12 | 32.08783 | 20.84448 | 4667 ft | 248 kts | 278° |
| 2026-04-25 14:12 | 32.08910 | 20.82454 | 4531 ft | 240 kts | 279° |
| 2026-04-25 14:13 | 32.09034 | 20.80518 | 4359 ft | 233 kts | 279° |
| 2026-04-25 14:13 | 32.09153 | 20.78651 | 4216 ft | 227 kts | 278° |
| 2026-04-25 14:13 | 32.09274 | 20.76800 | 4051 ft | 227 kts | 278° |
| 2026-04-25 14:13 | 32.09395 | 20.74911 | 3943 ft | 229 kts | 279° |
| 2026-04-25 14:14 | 32.09515 | 20.73041 | 3754 ft | 230 kts | 279° |
| 2026-04-25 14:14 | 32.09632 | 20.71179 | 3554 ft | 227 kts | 279° |
| 2026-04-25 14:14 | 32.09748 | 20.69344 | 3341 ft | 223 kts | 279° |
| 2026-04-25 14:14 | 32.09862 | 20.67516 | 3160 ft | 223 kts | 279° |
| 2026-04-25 14:15 | 32.09976 | 20.65694 | 3025 ft | 222 kts | 279° |
| 2026-04-25 14:15 | 32.10053 | 20.64492 | 2937 ft | 223 kts | 278° |
| 2026-04-25 14:15 | 32.10205 | 20.62046 | 2707 ft | 224 kts | 278° |
| 2026-04-25 14:15 | 32.10323 | 20.60189 | 2614 ft | 230 kts | 279° |
| 2026-04-25 14:16 | 32.10441 | 20.58305 | 2561 ft | 228 kts | 279° |
| 2026-04-25 14:16 | 32.10554 | 20.56460 | 2605 ft | 222 kts | 279° |
| 2026-04-25 14:16 | 32.10664 | 20.54665 | 2574 ft | 218 kts | 278° |
| 2026-04-25 14:16 | 32.10775 | 20.52875 | 2563 ft | 224 kts | 277° |
| 2026-04-25 14:17 | 32.10502 | 20.51030 | 2582 ft | 231 kts | 250° |
| 2026-04-25 14:17 | 32.09545 | 20.49524 | 2570 ft | 233 kts | 226° |
| 2026-04-25 14:17 | 32.08150 | 20.48571 | 2555 ft | 231 kts | 206° |
| 2026-04-25 14:17 | 32.06643 | 20.48007 | 2572 ft | 225 kts | 200° |
| 2026-04-25 14:18 | 32.05153 | 20.47461 | 2590 ft | 228 kts | 204° |
| 2026-04-25 14:18 | 32.03656 | 20.46752 | 2569 ft | 231 kts | 210° |
| 2026-04-25 14:18 | 32.02255 | 20.45892 | 2548 ft | 226 kts | 214° |
| 2026-04-25 14:18 | 32.00938 | 20.44887 | 2566 ft | 225 kts | 221° |
| 2026-04-25 14:19 | 31.99709 | 20.43776 | 2568 ft | 219 kts | 225° |
| 2026-04-25 14:19 | 31.98615 | 20.42634 | 2527 ft | 203 kts | 230° |
| 2026-04-25 14:19 | 31.97660 | 20.41475 | 2556 ft | 196 kts | 234° |
| 2026-04-25 14:19 | 31.96778 | 20.40241 | 2579 ft | 200 kts | 237° |
| 2026-04-25 14:20 | 31.95970 | 20.38918 | 2568 ft | 198 kts | 251° |
| 2026-04-25 14:20 | 31.95782 | 20.37899 | 2566 ft | 185 kts | 278° |
| 2026-04-25 14:20 | 31.96433 | 20.36206 | 2524 ft | 167 kts | 317° |
| 2026-04-25 14:20 | 31.97367 | 20.35426 | 2503 ft | 162 kts | 327° |
| 2026-04-25 14:21 | 31.98300 | 20.34729 | 2412 ft | 153 kts | 328° |
| 2026-04-25 14:21 | 31.99180 | 20.34076 | 2352 ft | 148 kts | 328° |
| 2026-04-25 14:21 | 32.00049 | 20.33435 | 2297 ft | 148 kts | 328° |
| 2026-04-25 14:21 | 32.00916 | 20.32791 | 2214 ft | 150 kts | 328° |
| 2026-04-25 14:22 | 32.01821 | 20.32107 | 2023 ft | 151 kts | 329° |
| 2026-04-25 14:22 | 32.02680 | 20.31504 | 1797 ft | 137 kts | 330° |
| 2026-04-25 14:22 | 32.03448 | 20.30978 | 1626 ft | 121 kts | 329° |
| 2026-04-25 14:22 | 32.04155 | 20.30496 | 1485 ft | 118 kts | 329° |
| 2026-04-25 14:23 | 32.04898 | 20.29998 | 1325 ft | 125 kts | 329° |
| 2026-04-25 14:23 | 32.05636 | 20.29504 | 1156 ft | 119 kts | 329° |
| 2026-04-25 14:23 | 32.06333 | 20.29032 | 1013 ft | 116 kts | 329° |
| 2026-04-25 14:23 | 32.07024 | 20.28542 | 823 ft | 110 kts | 328° |
| 2026-04-25 14:24 | 32.07699 | 20.28076 | 553 ft | 120 kts | 332° |
| 2026-04-25 14:24 | 32.08425 | 20.27599 | 450 ft | 118 kts | 331° |
| 2026-04-25 14:24 | 32.09056 | 20.27184 | 423 ft | 85 kts | 330° |
| 2026-04-25 14:24 | 32.09448 | 20.26920 | 418 ft | 49 kts | 330° |
| 2026-04-25 14:25 | 32.09720 | 20.26740 | 413 ft | 42 kts | 330° |
| 2026-04-25 14:25 | 32.09965 | 20.26576 | 405 ft | 38 kts | 330° |
| 2026-04-25 14:25 | 32.10187 | 20.26427 | 399 ft | 35 kts | 330° |
| 2026-04-25 14:25 | 32.10307 | 20.26346 | 398 ft | 25 kts | 329° |
| 2026-04-25 14:26 | 32.10415 | 20.26239 | 393 ft | 10 kts | 296° |
| 2026-04-25 14:26 | 32.10429 | 20.26162 | 396 ft | 10 kts | 265° |
| 2026-04-25 14:26 | 32.10376 | 20.26066 | 396 ft | 20 kts | 214° |
| 2026-04-25 14:26 | 32.10269 | 20.26055 | 391 ft | 10 kts | 164° |
| 2026-04-25 14:27 | 32.10238 | 20.26068 | 398 ft | 0 kts | 156° |
| 2026-04-25 14:27 | 32.10186 | 20.26101 | 399 ft | 20 kts | 150° |
| 2026-04-25 14:27 | 32.10041 | 20.26198 | 401 ft | 27 kts | 150° |
| 2026-04-25 14:27 | 32.09884 | 20.26305 | 405 ft | 25 kts | 150° |
| 2026-04-25 14:28 | 32.09735 | 20.26406 | 405 ft | 24 kts | 150° |
| 2026-04-25 14:28 | 32.09596 | 20.26500 | 411 ft | 23 kts | 150° |
| 2026-04-25 14:28 | 32.09462 | 20.26590 | 411 ft | 22 kts | 150° |
| 2026-04-25 14:28 | 32.09327 | 20.26680 | 412 ft | 23 kts | 151° |
| 2026-04-25 14:29 | 32.09186 | 20.26775 | 415 ft | 23 kts | 150° |
| 2026-04-25 14:29 | 32.09051 | 20.26868 | 418 ft | 22 kts | 149° |
| 2026-04-25 14:29 | 32.08920 | 20.26959 | 421 ft | 22 kts | 149° |
| 2026-04-25 14:29 | 32.08819 | 20.26944 | 423 ft | 9 kts | 231° |
| 2026-04-25 14:30 | 32.08812 | 20.26931 | 422 ft | 0 kts | 238° |
| 2026-04-25 14:30 | 32.08775 | 20.26983 | 417 ft | 10 kts | 91° |
| 2026-04-25 14:30 | 32.08747 | 20.27061 | 418 ft | 11 kts | 162° |
| 2026-04-25 14:31 | 32.08683 | 20.27044 | 424 ft | 11 kts | 254° |
| 2026-04-25 14:31 | 32.08680 | 20.27000 | 428 ft | 0 kts | 270° |